createdAt,value
2019-05-13T00:00:39.869Z,6.60
2019-05-13T00:05:48.100Z,7.37
2019-05-13T00:10:55.681Z,7.02
2019-05-13T00:16:03.801Z,7.93
2019-05-13T00:21:10.445Z,6.58
2019-05-13T00:26:18.068Z,7.23
2019-05-13T00:31:48.141Z,7.63
2019-05-13T00:36:25.756Z,7.37
2019-05-13T00:41:33.822Z,8.69
2019-05-13T00:46:40.749Z,6.63
2019-05-13T00:51:48.376Z,7.05
2019-05-13T00:56:55.973Z,7.74
2019-05-13T01:02:03.873Z,8.29
2019-05-13T01:07:24.782Z,7.19
2019-05-13T01:12:18.557Z,9.19
2019-05-13T01:17:26.321Z,7.49
2019-05-13T01:22:34.474Z,8.42
2019-05-13T01:27:41.890Z,10.46
2019-05-13T01:32:48.244Z,8.76
2019-05-13T01:37:55.853Z,8.48
2019-05-13T01:43:03.685Z,8.36
2019-05-13T01:48:13.862Z,9.71
2019-05-13T01:53:19.278Z,12.16
2019-05-13T01:58:26.884Z,9.16
2019-05-13T02:08:43.864Z,10.72
2019-05-13T02:13:49.189Z,11.24
2019-05-13T02:18:56.788Z,10.38
2019-05-13T02:24:04.545Z,9.79
2019-05-13T02:29:19.037Z,9.08
2019-05-13T02:34:16.624Z,9.69
2019-05-13T02:39:24.310Z,10.37
2019-05-13T02:44:33.337Z,10.30
2019-05-13T02:49:42.129Z,12.26
2019-05-13T02:54:46.785Z,12.35
2019-05-13T02:59:54.480Z,11.38
2019-05-13T03:05:03.258Z,10.06
2019-05-13T03:10:09.584Z,10.53
2019-05-13T03:15:17.194Z,14.12
2019-05-13T03:20:24.812Z,13.18
2019-05-13T03:25:33.209Z,11.37
2019-05-13T03:30:45.124Z,11.84
2019-05-13T03:35:46.884Z,13.48
2019-05-13T03:40:54.516Z,13.74
2019-05-13T03:46:03.350Z,10.63
2019-05-13T03:51:12.906Z,11.93
2019-05-13T03:56:17.375Z,14.38
2019-05-13T04:01:25.001Z,14.18
2019-05-13T04:06:32.704Z,15.50
2019-05-13T04:11:48.601Z,14.87
2019-05-13T04:16:46.730Z,16.00
2019-05-13T04:21:54.363Z,16.92
2019-05-13T04:27:02.789Z,11.89
2019-05-13T04:32:12.321Z,18.50
2019-05-13T04:37:16.321Z,12.91
2019-05-13T04:42:23.917Z,16.52
2019-05-13T04:47:33.262Z,16.68
2019-05-13T04:52:42.118Z,16.38
2019-05-13T04:57:45.914Z,16.93
2019-05-13T05:02:55.161Z,14.57
2019-05-13T05:08:03.138Z,18.75
2019-05-13T05:13:08.025Z,19.09
2019-05-13T05:18:15.628Z,19.30
2019-05-13T05:23:23.455Z,17.11
2019-05-13T05:28:31.963Z,14.56
2019-05-13T05:33:38.280Z,15.22
2019-05-13T05:38:52.260Z,14.49
2019-05-13T05:43:52.244Z,15.91
2019-05-13T05:48:57.305Z,15.57
2019-05-13T05:54:05.165Z,12.23
2019-05-13T05:59:12.774Z,14.30
2019-05-13T06:04:22.062Z,12.21
2019-05-13T06:09:28.508Z,13.39
2019-05-13T06:14:36.124Z,11.25
2019-05-13T06:19:43.710Z,12.87
2019-05-13T06:24:52.184Z,10.62
2019-05-13T06:29:58.540Z,11.91
2019-05-13T06:35:06.972Z,13.34
2019-05-13T06:40:14.613Z,10.64
2019-05-13T06:45:22.196Z,10.13
2019-05-13T06:50:32.181Z,13.45
2019-05-13T06:55:36.988Z,13.31
2019-05-13T07:00:44.704Z,16.28
2019-05-13T07:05:52.621Z,11.20
2019-05-13T07:11:14.106Z,9.24
2019-05-13T07:16:07.165Z,13.39
2019-05-13T07:21:14.764Z,10.00
2019-05-13T07:26:22.526Z,8.73
2019-05-13T07:31:32.310Z,11.19
2019-05-13T07:36:37.296Z,9.20
2019-05-13T07:41:44.883Z,10.13
2019-05-13T07:46:52.522Z,10.85
2019-05-13T07:52:01.550Z,8.24
2019-05-13T07:57:07.589Z,8.54
2019-05-13T08:02:15.161Z,7.81
2019-05-13T08:07:23.188Z,7.53
2019-05-13T08:12:31.898Z,7.00
2019-05-13T08:17:41.338Z,11.15
2019-05-13T08:22:45.141Z,7.71
2019-05-13T08:27:52.774Z,6.06
2019-05-13T08:33:01.821Z,7.44
2019-05-13T08:38:07.620Z,6.26
2019-05-13T08:43:15.264Z,5.96
2019-05-13T08:48:26.124Z,7.19
2019-05-13T08:53:23.708Z,6.22
2019-05-13T08:58:32.020Z,4.33
2019-05-13T09:03:41.503Z,8.27
2019-05-13T09:08:46.104Z,6.11
2019-05-13T09:13:53.725Z,3.49
2019-05-13T09:19:03.675Z,6.57
2019-05-13T09:24:23.942Z,4.99
2019-05-13T09:29:15.637Z,5.46
2019-05-13T09:34:23.420Z,4.92
2019-05-13T09:39:32.297Z,5.31
2019-05-13T09:44:38.213Z,5.25
2019-05-13T09:49:45.805Z,5.26
2019-05-13T09:54:53.557Z,3.10
2019-05-13T10:00:01.936Z,4.34
2019-05-13T10:05:08.305Z,4.61
2019-05-13T10:10:15.964Z,3.83
2019-05-13T10:15:23.716Z,5.12
2019-05-13T10:20:31.819Z,4.37
2019-05-13T10:25:38.533Z,3.15
2019-05-13T10:30:46.182Z,5.81
2019-05-13T10:35:53.828Z,3.23
2019-05-13T10:41:03.268Z,4.93
2019-05-13T10:46:08.597Z,4.73
2019-05-13T10:51:16.186Z,4.88
2019-05-13T10:56:23.822Z,4.80
2019-05-13T11:01:32.734Z,4.45
2019-05-13T11:06:38.556Z,4.44
2019-05-13T11:11:46.228Z,3.58
2019-05-13T11:16:53.868Z,5.16
2019-05-13T11:22:02.768Z,3.17
2019-05-13T11:27:11.747Z,5.65
2019-05-13T11:32:15.869Z,6.22
2019-05-13T11:37:23.527Z,4.33
2019-05-13T11:42:32.794Z,5.30
2019-05-13T11:47:38.189Z,4.66
2019-05-13T11:52:45.825Z,4.00
2019-05-13T11:57:53.447Z,6.16
2019-05-13T12:03:04.239Z,5.64
2019-05-13T12:08:08.242Z,5.24
2019-05-13T12:13:16.040Z,3.04
2019-05-13T12:18:23.993Z,3.87
2019-05-13T12:23:31.410Z,4.78
2019-05-13T12:28:41.519Z,6.49
2019-05-13T12:33:46.223Z,5.36
2019-05-13T12:38:54.513Z,3.28
2019-05-13T12:44:01.789Z,5.39
2019-05-13T12:49:08.177Z,4.55
2019-05-13T12:54:15.803Z,5.09
2019-05-13T12:59:23.473Z,6.45
2019-05-13T13:04:33.506Z,3.73
2019-05-13T13:09:38.272Z,3.67
2019-05-13T13:14:45.899Z,2.99
2019-05-13T13:19:54.753Z,4.64
2019-05-13T13:25:05.009Z,4.43
2019-05-13T13:30:08.666Z,3.60
2019-05-13T13:35:15.301Z,3.08
2019-05-13T13:40:28.373Z,4.14
2019-05-13T13:45:37.430Z,3.73
2019-05-13T13:50:37.585Z,3.70
2019-05-13T13:55:45.184Z,4.25
2019-05-13T14:01:01.703Z,3.63
2019-05-13T14:06:05.717Z,3.80
2019-05-13T14:11:07.060Z,4.70
2019-05-13T14:16:28.640Z,4.85
2019-05-13T14:21:21.791Z,5.45
2019-05-13T14:26:29.545Z,4.37
2019-05-13T14:31:36.697Z,4.83
2019-05-13T14:36:44.551Z,5.16
2019-05-13T14:41:52.140Z,4.99
2019-05-13T14:47:01.580Z,3.83
2019-05-13T14:52:06.954Z,5.42
2019-05-13T14:57:15.053Z,4.78
2019-05-13T15:02:21.739Z,4.88
2019-05-13T15:07:29.388Z,5.24
2019-05-13T15:12:37.021Z,3.32
2019-05-13T15:17:44.622Z,4.03
2019-05-13T15:22:52.252Z,4.68
2019-05-13T15:27:59.825Z,3.48
2019-05-13T15:33:07.481Z,3.96
2019-05-13T15:38:15.073Z,4.04
2019-05-13T15:43:22.677Z,3.97
2019-05-13T15:48:31.546Z,3.59
2019-05-13T15:53:37.456Z,3.31
2019-05-13T15:58:45.154Z,4.86
2019-05-13T16:03:52.786Z,3.56
2019-05-13T16:09:02.792Z,4.64
2019-05-13T16:14:07.476Z,4.49
2019-05-13T16:19:15.151Z,4.38
2019-05-13T16:24:22.789Z,5.40
2019-05-13T16:29:31.527Z,3.88
2019-05-13T16:34:37.605Z,4.88
2019-05-13T16:39:45.193Z,6.07
2019-05-13T16:44:52.838Z,5.42
2019-05-13T16:50:02.591Z,3.97
2019-05-13T16:55:15.240Z,5.81
2019-05-13T17:00:13.933Z,3.78
2019-05-13T17:05:21.548Z,5.36
2019-05-13T17:10:31.376Z,6.43
2019-05-13T17:15:36.640Z,5.29
2019-05-13T17:20:44.275Z,4.43
2019-05-13T17:25:53.202Z,5.22
2019-05-13T17:31:07.904Z,5.76
2019-05-13T17:36:05.529Z,5.34
2019-05-13T17:41:13.158Z,4.98
2019-05-13T17:46:21.889Z,5.18
2019-05-13T17:51:27.949Z,5.09
2019-05-13T17:56:35.807Z,6.36
2019-05-13T18:01:43.490Z,5.00
2019-05-13T18:06:52.320Z,5.12
2019-05-13T18:11:58.540Z,5.13
2019-05-13T18:17:06.144Z,5.33
2019-05-13T18:22:13.771Z,4.46
2019-05-13T18:27:22.166Z,5.93
2019-05-13T18:32:28.552Z,6.98
2019-05-13T18:37:36.156Z,6.14
2019-05-13T18:42:43.830Z,5.97
2019-05-13T18:47:51.509Z,5.00
2019-05-13T18:53:01.628Z,6.33
2019-05-13T18:58:06.460Z,6.33
2019-05-13T19:03:14.061Z,8.47
2019-05-13T19:08:25.343Z,6.40
2019-05-13T19:13:23.693Z,5.74
2019-05-13T19:18:32.052Z,5.93
2019-05-13T19:23:38.449Z,6.71
2019-05-13T19:28:46.057Z,5.66
2019-05-13T19:33:53.704Z,5.02
2019-05-13T19:39:01.842Z,5.74
2019-05-13T19:44:08.641Z,6.49
2019-05-13T19:49:28.762Z,4.44
2019-05-13T19:54:23.473Z,5.36
2019-05-13T19:59:32.258Z,7.12
2019-05-13T20:04:38.316Z,6.35
2019-05-13T20:09:45.960Z,4.73
2019-05-13T20:14:53.715Z,5.81
2019-05-13T20:20:02.139Z,5.89
2019-05-13T20:25:10.329Z,5.43
2019-05-13T20:30:15.648Z,5.82
2019-05-13T20:35:23.254Z,5.38
2019-05-13T20:40:32.242Z,6.60
2019-05-13T20:45:38.289Z,6.72
2019-05-13T20:50:46.193Z,5.89
2019-05-13T20:55:53.836Z,5.66
2019-05-13T21:01:02.358Z,5.37
2019-05-13T21:06:08.671Z,6.03
2019-05-13T21:11:16.429Z,4.54
2019-05-13T21:16:24.072Z,7.05
2019-05-13T21:21:31.729Z,4.77
2019-05-13T21:26:39.388Z,5.76
2019-05-13T21:31:46.596Z,5.99
2019-05-13T21:37:06.676Z,5.79
2019-05-13T21:41:54.421Z,7.30
2019-05-13T21:47:02.307Z,5.16
2019-05-13T21:52:09.692Z,6.21
2019-05-13T21:57:17.349Z,6.29
2019-05-13T22:02:34.940Z,5.25
2019-05-13T22:07:32.561Z,6.17
2019-05-13T22:12:41.458Z,7.45
2019-05-13T22:17:47.353Z,5.47
2019-05-13T22:22:55.016Z,5.14
2019-05-13T22:28:02.648Z,5.29
2019-05-13T22:33:12.270Z,5.39
2019-05-13T22:38:17.660Z,4.56
2019-05-13T22:43:25.493Z,5.39
2019-05-13T22:48:33.088Z,5.68
2019-05-13T22:53:42.169Z,3.89
2019-05-13T22:58:47.888Z,4.73
2019-05-13T23:03:55.674Z,4.26
2019-05-13T23:09:03.285Z,5.83
2019-05-13T23:14:13.364Z,4.43
2019-05-13T23:19:18.081Z,4.98
2019-05-13T23:24:25.924Z,4.36
2019-05-13T23:29:33.545Z,5.45
2019-05-13T23:34:42.244Z,5.79
2019-05-13T23:39:51.968Z,5.24
2019-05-13T23:44:57.481Z,5.22
2019-05-13T23:50:05.098Z,5.80
2019-05-13T23:55:12.770Z,5.34
